Starners Station, Pennsylvania
Current Conditions -  °F | °C
As of 11:53 AM on Friday 24 Oct 2014 (Local Time) from KTHV Reporting Station
Clear Clear  
Wind Chill: 63°   Ceiling: Unl
Heat Index: 63°   Visibility: 10mi
Dew Point: 37°   Wind: 18mph
Humidity: 38%   Direction: 300°WNW
Pressure: 29.93"   Gusts: 24mph
Location:  40.0362°N, 77.1908°W
Report Text: KTHV 241553Z AUTO 30016G21KT 10SM CLR 17/03 A2993 RMK AO2 SLP138 T01720028
Loading
Personal Weather Stations






























Interactive Weather Map
Tropical Storm Tracking
New forecast layout! Learn more

10-Day Weather Forecast

Advertisements
Track Severe Weather on mobile